createdAt,value
2017-07-21T00:02:15.398Z,34.79
2017-07-21T00:04:42.888Z,34.80
2017-07-21T00:07:10.374Z,34.85
2017-07-21T00:09:37.838Z,34.78
2017-07-21T00:12:05.350Z,34.82
2017-07-21T00:14:33.614Z,34.79
2017-07-21T00:17:01.117Z,34.78
2017-07-21T00:19:28.586Z,34.75
2017-07-21T00:21:56.068Z,34.75
2017-07-21T00:24:23.527Z,34.76
2017-07-21T00:26:51.020Z,34.69
2017-07-21T00:29:18.489Z,34.73
2017-07-21T00:31:45.974Z,34.72
2017-07-21T00:34:13.584Z,34.67
2017-07-21T00:36:41.029Z,34.62
2017-07-21T00:39:08.480Z,34.60
2017-07-21T00:41:35.968Z,34.56
2017-07-21T00:44:03.449Z,34.58
2017-07-21T00:46:30.925Z,34.57
2017-07-21T00:48:58.434Z,34.62
2017-07-21T00:51:25.885Z,34.62
2017-07-21T00:53:53.382Z,34.61
2017-07-21T00:56:20.844Z,34.60
2017-07-21T00:58:48.350Z,34.67
2017-07-21T01:01:15.840Z,34.73
2017-07-21T01:03:43.317Z,34.66
2017-07-21T01:06:10.798Z,34.70
2017-07-21T01:08:38.265Z,34.75
2017-07-21T01:11:05.728Z,34.72
2017-07-21T01:13:33.223Z,34.78
2017-07-21T01:16:00.679Z,34.88
2017-07-21T01:18:28.178Z,34.65
2017-07-21T01:20:55.781Z,34.68
2017-07-21T01:23:23.242Z,34.66
2017-07-21T01:25:50.698Z,34.67
2017-07-21T01:28:18.180Z,34.76
2017-07-21T01:30:45.637Z,34.61
2017-07-21T01:33:13.160Z,34.54
2017-07-21T01:35:40.664Z,34.54
2017-07-21T01:38:08.101Z,34.61
2017-07-21T01:40:35.576Z,34.63
2017-07-21T01:43:03.195Z,34.55
2017-07-21T01:45:30.675Z,34.49
2017-07-21T01:47:58.162Z,34.63
2017-07-21T01:50:25.645Z,34.45
2017-07-21T01:52:53.106Z,34.44
2017-07-21T01:55:20.601Z,34.57
2017-07-21T01:57:48.080Z,34.48
2017-07-21T02:00:15.833Z,34.33
2017-07-21T02:02:43.330Z,34.31
2017-07-21T02:05:10.953Z,34.35
2017-07-21T02:07:38.416Z,34.26
2017-07-21T02:10:05.877Z,34.43
2017-07-21T02:12:33.375Z,34.30
2017-07-21T02:15:00.871Z,34.20
2017-07-21T02:17:28.344Z,34.19
2017-07-21T02:19:55.788Z,34.19
2017-07-21T02:22:23.406Z,34.29
2017-07-21T02:24:50.866Z,34.20
2017-07-21T02:27:18.459Z,34.23
2017-07-21T02:29:45.925Z,34.18
2017-07-21T02:32:13.394Z,34.25
2017-07-21T02:34:40.887Z,34.20
2017-07-21T02:37:08.334Z,34.14
2017-07-21T02:39:35.819Z,34.30
2017-07-21T02:42:03.309Z,34.20
2017-07-21T02:44:30.803Z,34.18
2017-07-21T02:46:58.280Z,34.31
2017-07-21T02:49:25.765Z,34.34
2017-07-21T02:51:53.246Z,34.17
2017-07-21T02:54:20.701Z,34.23
2017-07-21T02:56:48.185Z,34.37
2017-07-21T02:59:15.649Z,34.23
2017-07-21T03:01:43.139Z,34.44
2017-07-21T03:04:10.594Z,34.39
2017-07-21T03:06:38.512Z,34.41
2017-07-21T03:09:05.970Z,34.32
2017-07-21T03:11:33.437Z,34.44
2017-07-21T03:14:00.906Z,34.45
2017-07-21T03:16:28.390Z,34.46
2017-07-21T03:18:55.865Z,34.40
2017-07-21T03:21:23.316Z,34.40
2017-07-21T03:23:50.834Z,34.36
2017-07-21T03:26:18.289Z,34.32
2017-07-21T03:28:45.776Z,34.17
2017-07-21T03:31:13.274Z,34.27
2017-07-21T03:33:40.744Z,34.34
2017-07-21T03:36:08.249Z,34.28
2017-07-21T03:38:35.721Z,34.24
2017-07-21T03:41:03.196Z,34.30
2017-07-21T03:43:30.638Z,34.34
2017-07-21T03:45:58.135Z,34.15
2017-07-21T03:48:25.585Z,34.08
2017-07-21T03:50:53.063Z,34.12
2017-07-21T03:53:20.544Z,34.23
2017-07-21T03:55:48.013Z,34.13
2017-07-21T03:58:15.490Z,34.16
2017-07-21T04:00:42.955Z,34.07
2017-07-21T04:03:10.452Z,34.23
2017-07-21T04:05:37.907Z,34.26
2017-07-21T04:08:05.389Z,34.09
2017-07-21T04:10:32.923Z,34.24
2017-07-21T04:13:00.470Z,34.16
2017-07-21T04:15:27.936Z,34.11
2017-07-21T04:17:55.408Z,34.18
2017-07-21T04:20:22.902Z,34.20
2017-07-21T04:22:50.355Z,34.17
2017-07-21T04:25:17.849Z,34.17
2017-07-21T04:27:45.340Z,34.12
2017-07-21T04:30:12.825Z,34.10
2017-07-21T04:32:40.268Z,34.13
2017-07-21T04:35:07.737Z,34.17
2017-07-21T04:37:35.235Z,34.22
2017-07-21T04:40:02.829Z,34.17
2017-07-21T04:42:30.284Z,34.17
2017-07-21T04:44:57.730Z,34.10
2017-07-21T04:47:25.214Z,34.34
2017-07-21T04:49:53.322Z,34.21
2017-07-21T04:52:20.802Z,34.11
2017-07-21T04:54:48.289Z,34.32
2017-07-21T04:57:15.761Z,34.46
2017-07-21T04:59:43.218Z,34.36
2017-07-21T05:02:10.702Z,34.31
2017-07-21T05:04:38.160Z,34.58
2017-07-21T05:07:05.629Z,34.45
2017-07-21T05:09:33.139Z,34.41
2017-07-21T05:12:00.602Z,34.25
2017-07-21T05:14:28.752Z,34.19
2017-07-21T05:16:56.627Z,35.17
2017-07-21T05:19:24.114Z,34.28
2017-07-21T05:21:51.556Z,34.25
2017-07-21T05:24:19.022Z,34.28
2017-07-21T05:26:46.466Z,34.99
2017-07-21T05:29:13.940Z,34.99
2017-07-21T05:31:41.426Z,34.99
2017-07-21T05:34:08.883Z,35.11
2017-07-21T05:36:36.370Z,35.14
2017-07-21T05:39:03.827Z,35.21
2017-07-21T05:41:31.311Z,35.27
2017-07-21T05:43:58.762Z,35.34
2017-07-21T05:46:26.233Z,35.39
2017-07-21T05:48:53.684Z,35.43
2017-07-21T05:51:21.160Z,35.47
2017-07-21T05:53:48.645Z,35.55
2017-07-21T05:56:16.126Z,35.58
2017-07-21T05:58:43.585Z,35.64
2017-07-21T06:01:11.037Z,35.69
2017-07-21T06:03:38.535Z,35.72
2017-07-21T06:06:05.977Z,35.74
2017-07-21T06:08:33.455Z,35.79
2017-07-21T06:11:00.935Z,35.75
2017-07-21T06:13:28.418Z,35.84
2017-07-21T06:15:55.908Z,35.91
2017-07-21T06:18:23.365Z,35.99
2017-07-21T06:20:50.839Z,36.01
2017-07-21T06:23:18.418Z,36.06
2017-07-21T06:25:45.861Z,36.10
2017-07-21T06:28:13.354Z,36.24
2017-07-21T06:30:40.832Z,36.24
2017-07-21T06:33:08.283Z,36.32
2017-07-21T06:35:35.749Z,36.44
2017-07-21T06:38:04.098Z,36.52
2017-07-21T06:40:32.214Z,36.61
2017-07-21T06:42:59.669Z,36.71
2017-07-21T06:45:27.168Z,36.70
2017-07-21T06:47:54.650Z,36.75
2017-07-21T06:50:22.254Z,36.73
2017-07-21T06:52:49.698Z,36.77
2017-07-21T06:55:17.168Z,36.88
2017-07-21T06:57:44.668Z,36.94
2017-07-21T07:00:12.141Z,37.07
2017-07-21T07:02:39.638Z,37.12
2017-07-21T07:05:07.133Z,37.11
2017-07-21T07:07:34.618Z,37.13
2017-07-21T07:10:02.118Z,37.19
2017-07-21T07:12:29.592Z,37.14
2017-07-21T07:14:57.064Z,37.29
2017-07-21T07:17:24.532Z,37.23
2017-07-21T07:19:52.038Z,37.38
2017-07-21T07:22:19.598Z,37.38
2017-07-21T07:24:47.107Z,37.41
2017-07-21T07:27:15.481Z,37.41
2017-07-21T07:29:43.439Z,37.44
2017-07-21T07:32:10.898Z,37.47
2017-07-21T07:34:38.419Z,37.52
2017-07-21T07:37:05.882Z,37.56
2017-07-21T07:39:33.413Z,37.58
2017-07-21T07:42:00.882Z,37.60
2017-07-21T07:44:28.411Z,37.63
2017-07-21T07:46:55.859Z,37.65
2017-07-21T07:49:23.343Z,37.66
2017-07-21T07:51:50.836Z,37.63
2017-07-21T07:54:18.377Z,37.62
2017-07-21T07:56:45.863Z,37.65
2017-07-21T07:59:13.305Z,37.70
2017-07-21T08:01:40.802Z,37.74
2017-07-21T08:04:08.274Z,37.78
2017-07-21T08:06:35.787Z,37.73
2017-07-21T08:09:03.607Z,37.76
2017-07-21T08:11:31.081Z,37.74
2017-07-21T08:13:58.571Z,37.73
2017-07-21T08:16:26.012Z,37.82
2017-07-21T08:18:53.530Z,37.83
2017-07-21T08:21:21.038Z,37.84
2017-07-21T08:23:48.525Z,37.85
2017-07-21T08:26:15.985Z,37.84
2017-07-21T08:28:43.473Z,37.88
2017-07-21T08:31:10.935Z,37.87
2017-07-21T08:33:38.420Z,37.84
2017-07-21T08:36:05.876Z,37.85
2017-07-21T08:38:33.480Z,37.89
2017-07-21T08:41:00.959Z,37.90
2017-07-21T08:43:29.358Z,37.92
2017-07-21T08:45:56.883Z,37.93
2017-07-21T08:48:24.365Z,37.91
2017-07-21T08:50:51.842Z,37.88
2017-07-21T08:53:19.409Z,37.88
2017-07-21T08:55:46.902Z,37.91
2017-07-21T08:58:14.464Z,37.89
2017-07-21T09:00:42.140Z,37.97
2017-07-21T09:03:09.611Z,37.99
2017-07-21T09:05:37.064Z,37.90
2017-07-21T09:08:04.578Z,37.96
2017-07-21T09:10:32.020Z,37.92
2017-07-21T09:12:59.545Z,37.89
2017-07-21T09:15:27.201Z,37.91
2017-07-21T09:17:54.700Z,37.93
2017-07-21T09:20:22.571Z,37.95
2017-07-21T09:22:50.035Z,37.94
2017-07-21T09:25:17.494Z,37.92
2017-07-21T09:27:44.975Z,37.93
2017-07-21T09:30:12.446Z,37.87
2017-07-21T09:32:39.912Z,37.87
2017-07-21T09:35:07.390Z,37.83
2017-07-21T09:37:34.863Z,37.88
2017-07-21T09:40:02.363Z,37.89
2017-07-21T09:42:29.868Z,37.91
2017-07-21T09:44:57.330Z,37.91
2017-07-21T09:47:24.824Z,37.90
2017-07-21T09:49:52.299Z,37.89
2017-07-21T09:52:19.794Z,37.83
2017-07-21T09:54:47.252Z,37.89
2017-07-21T09:57:14.774Z,37.97
2017-07-21T09:59:42.267Z,37.99
2017-07-21T10:02:09.797Z,37.92
2017-07-21T10:04:37.246Z,37.93
2017-07-21T10:07:04.745Z,37.90
2017-07-21T10:09:32.267Z,37.90
2017-07-21T10:11:59.709Z,37.86
2017-07-21T10:14:27.946Z,37.88
2017-07-21T10:16:55.410Z,37.94
2017-07-21T10:19:22.876Z,37.92
2017-07-21T10:21:50.355Z,37.97
2017-07-21T10:24:17.959Z,37.92
2017-07-21T10:26:46.088Z,37.92
2017-07-21T10:29:13.560Z,37.94
2017-07-21T10:31:41.020Z,37.91
2017-07-21T10:34:08.617Z,37.87
2017-07-21T10:36:36.072Z,37.91
2017-07-21T10:39:03.533Z,37.91
2017-07-21T10:41:31.021Z,37.94
2017-07-21T10:43:58.482Z,37.91
2017-07-21T10:46:25.957Z,37.96
2017-07-21T10:48:53.421Z,37.94
2017-07-21T10:51:20.915Z,37.92
2017-07-21T10:53:48.384Z,37.91
2017-07-21T10:56:15.870Z,37.92
2017-07-21T10:58:43.315Z,37.97
2017-07-21T11:01:10.884Z,38.00
2017-07-21T11:03:38.417Z,37.99
2017-07-21T11:06:05.881Z,38.05
2017-07-21T11:08:33.387Z,37.98
2017-07-21T11:11:00.841Z,37.99
2017-07-21T11:13:28.352Z,38.00
2017-07-21T11:15:55.795Z,38.06
2017-07-21T11:18:23.273Z,38.12
2017-07-21T11:20:50.741Z,38.12
2017-07-21T11:23:18.218Z,38.11
2017-07-21T11:25:45.660Z,38.10
2017-07-21T11:28:13.157Z,38.17
2017-07-21T11:30:40.651Z,38.10
2017-07-21T11:33:08.093Z,38.15
2017-07-21T11:35:35.591Z,38.15
2017-07-21T11:38:03.066Z,38.16
2017-07-21T11:40:30.561Z,38.19
2017-07-21T11:42:58.040Z,38.19
2017-07-21T11:45:25.529Z,38.16
2017-07-21T11:47:53.299Z,38.16
2017-07-21T11:50:20.786Z,38.16
2017-07-21T11:52:48.228Z,38.19
2017-07-21T11:55:15.758Z,38.21
2017-07-21T11:57:43.275Z,38.21
2017-07-21T12:00:10.770Z,38.22
2017-07-21T12:02:38.238Z,38.25
2017-07-21T12:05:05.716Z,38.27
2017-07-21T12:07:33.181Z,38.29
2017-07-21T12:10:00.898Z,38.28
2017-07-21T12:12:28.341Z,38.28
2017-07-21T12:14:55.794Z,38.28
2017-07-21T12:17:23.735Z,38.33
2017-07-21T12:19:51.205Z,38.35
2017-07-21T12:22:18.658Z,38.34
2017-07-21T12:24:46.146Z,38.34
2017-07-21T12:27:13.589Z,38.38
2017-07-21T12:29:41.705Z,38.39
2017-07-21T12:32:09.195Z,38.40
2017-07-21T12:34:36.682Z,38.42
2017-07-21T12:37:04.162Z,38.42
2017-07-21T12:39:31.625Z,38.42
2017-07-21T12:41:59.163Z,38.40
2017-07-21T12:44:26.648Z,38.41
2017-07-21T12:46:54.147Z,38.41
2017-07-21T12:49:21.630Z,38.40
2017-07-21T12:51:49.086Z,38.41
2017-07-21T12:54:16.565Z,38.44
2017-07-21T12:56:44.030Z,38.47
2017-07-21T12:59:11.538Z,38.48
2017-07-21T13:01:38.997Z,38.48
2017-07-21T13:04:06.493Z,38.49
2017-07-21T13:06:33.945Z,38.47
2017-07-21T13:09:01.452Z,38.46
2017-07-21T13:11:28.997Z,38.46
2017-07-21T13:13:56.453Z,38.50
2017-07-21T13:16:24.881Z,38.52
2017-07-21T13:18:53.314Z,38.52
2017-07-21T13:21:20.786Z,38.51
2017-07-21T13:23:48.431Z,38.53
2017-07-21T13:26:16.014Z,38.50
2017-07-21T13:28:43.767Z,38.52
2017-07-21T13:31:11.223Z,38.50
2017-07-21T13:33:38.753Z,38.55
2017-07-21T13:36:06.196Z,38.56
2017-07-21T13:38:33.677Z,38.55
2017-07-21T13:41:01.131Z,38.54
2017-07-21T13:43:28.642Z,38.51
2017-07-21T13:45:56.110Z,38.50
2017-07-21T13:48:23.586Z,38.51
2017-07-21T13:50:51.050Z,38.50
2017-07-21T13:53:18.537Z,38.54
2017-07-21T13:55:46.022Z,38.56
2017-07-21T13:58:13.654Z,38.56
2017-07-21T14:00:41.161Z,38.55
2017-07-21T14:03:08.611Z,38.53
2017-07-21T14:05:36.095Z,38.54
2017-07-21T14:08:03.561Z,38.52
2017-07-21T14:10:31.227Z,38.53
2017-07-21T14:12:58.688Z,38.58
2017-07-21T14:15:26.562Z,38.61
2017-07-21T14:17:54.024Z,38.58
2017-07-21T14:20:21.649Z,38.57
2017-07-21T14:22:49.942Z,38.55
2017-07-21T14:25:17.406Z,38.54
2017-07-21T14:27:44.912Z,38.55
2017-07-21T14:30:12.367Z,38.53
2017-07-21T14:32:39.849Z,38.55
2017-07-21T14:35:07.302Z,38.56
2017-07-21T14:37:34.784Z,38.57
2017-07-21T14:40:02.259Z,38.55
2017-07-21T14:42:29.744Z,38.54
2017-07-21T14:44:57.205Z,38.53
2017-07-21T14:47:24.785Z,38.55
2017-07-21T14:49:53.081Z,38.60
2017-07-21T14:52:20.562Z,38.60
2017-07-21T14:54:48.053Z,38.59
2017-07-21T14:57:15.524Z,38.59
2017-07-21T14:59:43.024Z,38.58
2017-07-21T15:02:10.477Z,38.59
2017-07-21T15:04:37.990Z,38.57
2017-07-21T15:07:05.975Z,38.56
2017-07-21T15:09:33.413Z,38.57
2017-07-21T15:12:00.917Z,38.57
2017-07-21T15:14:28.393Z,38.58
2017-07-21T15:16:55.838Z,38.63
2017-07-21T15:19:23.690Z,38.64
2017-07-21T15:21:51.381Z,38.63
2017-07-21T15:24:18.863Z,38.62
2017-07-21T15:26:46.555Z,38.62
2017-07-21T15:29:14.288Z,38.59
2017-07-21T15:31:41.749Z,38.58
2017-07-21T15:34:09.299Z,38.62
2017-07-21T15:36:36.776Z,38.63
2017-07-21T15:39:04.293Z,38.64
2017-07-21T15:41:31.772Z,38.67
2017-07-21T15:43:59.278Z,38.65
2017-07-21T15:46:26.772Z,38.64
2017-07-21T15:48:54.365Z,38.64
2017-07-21T15:51:21.882Z,38.61
2017-07-21T15:53:49.561Z,38.64
2017-07-21T15:56:17.042Z,38.65
2017-07-21T15:58:44.517Z,38.68
2017-07-21T16:01:11.978Z,38.67
2017-07-21T16:03:39.449Z,38.66
2017-07-21T16:06:06.932Z,38.62
2017-07-21T16:08:34.400Z,38.64
2017-07-21T16:11:01.906Z,38.61
2017-07-21T16:13:29.437Z,38.62
2017-07-21T16:15:56.941Z,38.61
2017-07-21T16:19:49.119Z,40.54
2017-07-21T16:22:16.600Z,40.25
2017-07-21T16:24:44.060Z,39.97
2017-07-21T16:27:11.541Z,40.04
2017-07-21T16:29:39.020Z,40.73
2017-07-21T16:32:06.523Z,40.40
2017-07-21T16:34:33.999Z,41.24
2017-07-21T16:37:01.473Z,41.44
2017-07-21T16:39:28.984Z,41.37
2017-07-21T16:41:56.449Z,41.15
2017-07-21T16:44:23.970Z,40.88
2017-07-21T16:46:51.432Z,40.79
2017-07-21T16:49:18.931Z,40.69
2017-07-21T16:51:46.386Z,40.58
2017-07-21T16:54:13.861Z,40.55
2017-07-21T16:56:41.321Z,40.53
2017-07-21T16:59:08.805Z,40.41
2017-07-21T17:01:36.262Z,40.40
2017-07-21T17:04:03.758Z,40.39
2017-07-21T17:06:31.204Z,40.40
2017-07-21T17:08:58.697Z,40.42
2017-07-21T17:11:26.177Z,40.43
2017-07-21T17:13:54.519Z,40.36
2017-07-21T17:16:21.973Z,40.39
2017-07-21T17:18:49.582Z,40.34
2017-07-21T17:21:17.036Z,40.36
2017-07-21T17:23:44.548Z,40.41
2017-07-21T17:26:12.021Z,40.42
2017-07-21T17:28:39.465Z,40.38
2017-07-21T17:31:06.976Z,40.36
2017-07-21T17:33:34.431Z,40.41
2017-07-21T17:36:01.922Z,40.44
2017-07-21T17:38:29.397Z,40.43
2017-07-21T17:40:56.887Z,40.45
2017-07-21T17:43:24.344Z,40.60
2017-07-21T17:45:51.796Z,40.52
2017-07-21T17:48:19.398Z,40.61
2017-07-21T17:50:47.209Z,40.67
2017-07-21T17:53:14.701Z,40.77
2017-07-21T17:55:42.185Z,40.91
2017-07-21T17:58:09.707Z,40.98
2017-07-21T18:00:37.201Z,41.11
2017-07-21T18:03:04.694Z,41.17
2017-07-21T18:05:32.199Z,41.18
2017-07-21T18:07:59.654Z,41.19
2017-07-21T18:10:27.155Z,41.34
2017-07-21T18:12:54.611Z,41.34
2017-07-21T18:15:22.239Z,41.22
2017-07-21T18:17:49.702Z,41.17
2017-07-21T18:20:17.324Z,41.14
2017-07-21T18:22:44.771Z,41.21
2017-07-21T18:25:12.216Z,41.08
2017-07-21T18:27:39.849Z,41.06
2017-07-21T18:30:07.339Z,41.04
2017-07-21T18:32:34.776Z,41.06
2017-07-21T18:35:02.349Z,41.01
2017-07-21T18:37:29.858Z,40.99
2017-07-21T18:39:57.306Z,40.93
2017-07-21T18:42:24.804Z,40.92
2017-07-21T18:44:52.264Z,40.88
2017-07-21T18:47:19.759Z,40.88
2017-07-21T18:49:47.213Z,40.91
2017-07-21T18:52:14.690Z,40.86
2017-07-21T18:54:42.138Z,40.80
2017-07-21T18:57:09.631Z,40.79
2017-07-21T18:59:37.111Z,40.74
2017-07-21T19:02:04.596Z,40.71
2017-07-21T19:04:32.078Z,40.71
2017-07-21T19:06:59.577Z,40.71
2017-07-21T19:09:27.045Z,40.74
2017-07-21T19:11:54.518Z,40.72
2017-07-21T19:14:21.989Z,40.64
2017-07-21T19:16:49.460Z,40.65
2017-07-21T19:19:16.994Z,40.63
2017-07-21T19:21:44.436Z,40.61
2017-07-21T19:24:11.924Z,40.63
2017-07-21T19:26:39.365Z,40.63
2017-07-21T19:29:06.861Z,40.64
2017-07-21T19:31:34.317Z,40.62
2017-07-21T19:34:01.871Z,40.64
2017-07-21T19:36:29.341Z,40.62
2017-07-21T19:38:56.822Z,40.61
2017-07-21T19:41:24.317Z,40.59
2017-07-21T19:43:51.774Z,40.63
2017-07-21T19:46:19.257Z,40.58
2017-07-21T19:48:46.707Z,40.57
2017-07-21T19:51:14.331Z,40.58
2017-07-21T19:53:42.088Z,40.61
2017-07-21T19:56:09.545Z,40.56
2017-07-21T19:58:37.092Z,40.58
2017-07-21T20:01:04.555Z,40.54
2017-07-21T20:03:32.017Z,40.51
2017-07-21T20:05:59.508Z,40.53
2017-07-21T20:08:26.980Z,40.48
2017-07-21T20:10:54.473Z,40.51
2017-07-21T20:13:21.938Z,40.56
2017-07-21T20:15:49.381Z,40.50
2017-07-21T20:18:16.871Z,40.53
2017-07-21T20:20:44.338Z,40.48
2017-07-21T20:23:11.798Z,40.47
2017-07-21T20:25:39.305Z,40.46
2017-07-21T20:28:06.766Z,40.46
2017-07-21T20:30:34.275Z,40.46
2017-07-21T20:33:01.736Z,40.45
2017-07-21T20:35:29.330Z,40.46
2017-07-21T20:37:56.791Z,40.42
2017-07-21T20:40:24.384Z,40.46
2017-07-21T20:42:51.833Z,40.41
2017-07-21T20:45:19.269Z,40.38
2017-07-21T20:47:46.754Z,40.39
2017-07-21T20:50:14.233Z,40.38
2017-07-21T20:52:41.708Z,40.33
2017-07-21T20:55:09.156Z,40.33
2017-07-21T20:57:36.889Z,40.31
2017-07-21T21:00:04.336Z,40.29
2017-07-21T21:02:31.834Z,40.29
2017-07-21T21:04:59.312Z,40.30
2017-07-21T21:07:26.855Z,40.31
2017-07-21T21:09:54.301Z,40.29
2017-07-21T21:12:21.758Z,40.29
2017-07-21T21:14:49.254Z,40.26
2017-07-21T21:17:16.699Z,40.27
2017-07-21T21:19:44.176Z,40.24
2017-07-21T21:22:11.670Z,40.22
2017-07-21T21:24:39.154Z,40.22
2017-07-21T21:27:06.689Z,40.24
2017-07-21T21:29:34.142Z,40.23
2017-07-21T21:32:01.674Z,40.22
2017-07-21T21:34:29.126Z,40.22
2017-07-21T21:36:56.610Z,40.24
2017-07-21T21:39:24.058Z,40.20
2017-07-21T21:41:51.560Z,40.20
2017-07-21T21:44:18.999Z,40.48
2017-07-21T21:47:18.205Z,42.13
2017-07-21T21:49:45.670Z,42.87
2017-07-21T21:52:13.115Z,42.61
2017-07-21T21:54:40.593Z,44.26
2017-07-21T21:57:08.043Z,45.08
2017-07-21T21:59:35.533Z,45.02
2017-07-21T22:02:03.043Z,45.84
2017-07-21T22:04:30.510Z,46.12
2017-07-21T22:06:57.974Z,46.00
2017-07-21T22:09:25.465Z,45.83
2017-07-21T22:11:52.950Z,46.13
2017-07-21T22:14:20.410Z,46.35
2017-07-21T22:16:47.901Z,46.40
2017-07-21T22:19:15.379Z,46.22
2017-07-21T22:21:42.854Z,46.04
2017-07-21T22:24:10.306Z,46.16
2017-07-21T22:26:37.784Z,46.15
2017-07-21T22:29:05.246Z,46.07
2017-07-21T22:31:32.983Z,48.92
2017-07-21T22:34:00.438Z,51.31
2017-07-21T22:36:27.881Z,53.90
2017-07-21T22:38:55.359Z,54.84
2017-07-21T22:41:22.841Z,54.59
2017-07-21T22:43:50.323Z,54.50
2017-07-21T22:46:17.760Z,54.41
2017-07-21T22:48:45.261Z,54.54
2017-07-21T22:51:12.703Z,55.10
2017-07-21T22:53:40.197Z,53.39
2017-07-21T22:56:07.805Z,52.46
2017-07-21T22:58:35.428Z,51.85
2017-07-21T23:01:02.882Z,51.71
2017-07-21T23:03:30.794Z,51.73
2017-07-21T23:05:58.245Z,51.64
2017-07-21T23:08:25.705Z,51.36
2017-07-21T23:10:53.165Z,51.39
2017-07-21T23:13:20.606Z,51.22
2017-07-21T23:15:48.069Z,51.02
2017-07-21T23:18:15.535Z,50.87
2017-07-21T23:20:43.005Z,50.81
2017-07-21T23:23:10.523Z,50.70
2017-07-21T23:25:37.975Z,50.59
2017-07-21T23:28:05.634Z,50.59
2017-07-21T23:30:33.097Z,50.58
2017-07-21T23:33:00.571Z,50.46
2017-07-21T23:35:28.061Z,50.46
2017-07-21T23:37:55.522Z,50.44
2017-07-21T23:40:22.993Z,50.77
2017-07-21T23:42:50.518Z,50.29
2017-07-21T23:45:17.980Z,50.06
2017-07-21T23:47:45.593Z,49.97
2017-07-21T23:50:13.095Z,51.05
2017-07-21T23:52:40.551Z,53.68
2017-07-21T23:55:08.051Z,53.96
2017-07-21T23:57:35.498Z,54.13
